sensor_id;sensor_type;location;lat;lon;timestamp;P1;durP1;ratioP1;P2;durP2;ratioP2
38783;SDS011;24531;45.502;12.238;2023-07-29T00:00:39;3.33;;;2.05;;
38783;SDS011;24531;45.502;12.238;2023-07-29T00:03:05;3.38;;;2.25;;
38783;SDS011;24531;45.502;12.238;2023-07-29T00:05:31;4.03;;;2.10;;
38783;SDS011;24531;45.502;12.238;2023-07-29T00:07:56;6.55;;;1.98;;
38783;SDS011;24531;45.502;12.238;2023-07-29T00:10:22;4.53;;;2.55;;
38783;SDS011;24531;45.502;12.238;2023-07-29T00:12:48;3.88;;;2.00;;
38783;SDS011;24531;45.502;12.238;2023-07-29T00:15:13;5.97;;;2.20;;
38783;SDS011;24531;45.502;12.238;2023-07-29T00:17:39;5.80;;;2.10;;
38783;SDS011;24531;45.502;12.238;2023-07-29T00:20:05;3.03;;;1.92;;
38783;SDS011;24531;45.502;12.238;2023-07-29T00:22:31;4.88;;;2.45;;
38783;SDS011;24531;45.502;12.238;2023-07-29T00:24:57;4.40;;;2.30;;
38783;SDS011;24531;45.502;12.238;2023-07-29T00:27:24;2.58;;;2.05;;
38783;SDS011;24531;45.502;12.238;2023-07-29T00:29:50;3.78;;;2.35;;
38783;SDS011;24531;45.502;12.238;2023-07-29T00:32:15;3.83;;;1.80;;
38783;SDS011;24531;45.502;12.238;2023-07-29T00:34:41;4.95;;;2.33;;
38783;SDS011;24531;45.502;12.238;2023-07-29T00:37:06;5.38;;;2.38;;
38783;SDS011;24531;45.502;12.238;2023-07-29T00:39:32;7.40;;;2.17;;
38783;SDS011;24531;45.502;12.238;2023-07-29T00:41:58;3.28;;;2.40;;
38783;SDS011;24531;45.502;12.238;2023-07-29T00:44:24;2.95;;;2.30;;
38783;SDS011;24531;45.502;12.238;2023-07-29T00:46:50;5.65;;;2.63;;
38783;SDS011;24531;45.502;12.238;2023-07-29T00:49:17;6.03;;;2.75;;
38783;SDS011;24531;45.502;12.238;2023-07-29T00:51:43;3.53;;;2.60;;
38783;SDS011;24531;45.502;12.238;2023-07-29T00:54:09;4.80;;;2.50;;
38783;SDS011;24531;45.502;12.238;2023-07-29T00:56:34;5.60;;;2.72;;
38783;SDS011;24531;45.502;12.238;2023-07-29T00:59:01;7.68;;;2.75;;
38783;SDS011;24531;45.502;12.238;2023-07-29T01:01:27;3.53;;;2.95;;
38783;SDS011;24531;45.502;12.238;2023-07-29T01:03:54;4.68;;;2.42;;
38783;SDS011;24531;45.502;12.238;2023-07-29T01:16:44;3.85;;;2.50;;
38783;SDS011;24531;45.502;12.238;2023-07-29T01:22:07;8.60;;;3.03;;
38783;SDS011;24531;45.502;12.238;2023-07-29T01:24:33;6.53;;;3.22;;
38783;SDS011;24531;45.502;12.238;2023-07-29T01:26:59;3.50;;;2.75;;
38783;SDS011;24531;45.502;12.238;2023-07-29T01:29:26;7.35;;;2.90;;
38783;SDS011;24531;45.502;12.238;2023-07-29T01:31:53;6.28;;;3.13;;
38783;SDS011;24531;45.502;12.238;2023-07-29T01:37:09;5.55;;;2.92;;
38783;SDS011;24531;45.502;12.238;2023-07-29T01:39:38;6.35;;;3.13;;
38783;SDS011;24531;45.502;12.238;2023-07-29T01:42:04;5.88;;;3.15;;
38783;SDS011;24531;45.502;12.238;2023-07-29T01:44:31;3.70;;;3.00;;
38783;SDS011;24531;45.502;12.238;2023-07-29T01:46:57;4.20;;;3.20;;
38783;SDS011;24531;45.502;12.238;2023-07-29T01:49:24;6.18;;;3.45;;
38783;SDS011;24531;45.502;12.238;2023-07-29T01:51:50;4.47;;;3.38;;
38783;SDS011;24531;45.502;12.238;2023-07-29T01:54:15;7.55;;;3.35;;
38783;SDS011;24531;45.502;12.238;2023-07-29T01:56:41;6.90;;;3.60;;
38783;SDS011;24531;45.502;12.238;2023-07-29T01:59:06;6.15;;;2.78;;
38783;SDS011;24531;45.502;12.238;2023-07-29T02:01:32;6.28;;;3.65;;
38783;SDS011;24531;45.502;12.238;2023-07-29T02:03:57;5.05;;;3.72;;
38783;SDS011;24531;45.502;12.238;2023-07-29T02:06:23;4.75;;;3.55;;
38783;SDS011;24531;45.502;12.238;2023-07-29T02:08:49;7.22;;;4.15;;
38783;SDS011;24531;45.502;12.238;2023-07-29T02:11:15;5.55;;;3.70;;
38783;SDS011;24531;45.502;12.238;2023-07-29T02:13:41;7.35;;;3.58;;
38783;SDS011;24531;45.502;12.238;2023-07-29T02:16:07;5.63;;;3.30;;
38783;SDS011;24531;45.502;12.238;2023-07-29T02:18:32;6.15;;;3.80;;
38783;SDS011;24531;45.502;12.238;2023-07-29T02:20:58;5.63;;;4.07;;
38783;SDS011;24531;45.502;12.238;2023-07-29T02:23:23;6.47;;;4.10;;
38783;SDS011;24531;45.502;12.238;2023-07-29T02:25:49;5.47;;;3.90;;
38783;SDS011;24531;45.502;12.238;2023-07-29T02:28:15;6.03;;;3.70;;
38783;SDS011;24531;45.502;12.238;2023-07-29T02:30:41;4.50;;;3.30;;
38783;SDS011;24531;45.502;12.238;2023-07-29T02:33:09;9.18;;;4.57;;
38783;SDS011;24531;45.502;12.238;2023-07-29T02:35:35;5.50;;;3.95;;
38783;SDS011;24531;45.502;12.238;2023-07-29T02:38:01;8.77;;;4.55;;
38783;SDS011;24531;45.502;12.238;2023-07-29T02:40:26;7.30;;;3.90;;
38783;SDS011;24531;45.502;12.238;2023-07-29T02:42:54;4.80;;;3.78;;
38783;SDS011;24531;45.502;12.238;2023-07-29T02:45:19;7.30;;;3.78;;
38783;SDS011;24531;45.502;12.238;2023-07-29T02:47:45;6.47;;;4.00;;
38783;SDS011;24531;45.502;12.238;2023-07-29T02:50:11;4.90;;;3.72;;
38783;SDS011;24531;45.502;12.238;2023-07-29T02:52:37;5.28;;;3.97;;
38783;SDS011;24531;45.502;12.238;2023-07-29T02:55:03;6.05;;;3.63;;
38783;SDS011;24531;45.502;12.238;2023-07-29T02:57:29;6.32;;;3.90;;
38783;SDS011;24531;45.502;12.238;2023-07-29T02:59:54;6.70;;;4.13;;
38783;SDS011;24531;45.502;12.238;2023-07-29T03:02:20;4.88;;;3.47;;
38783;SDS011;24531;45.502;12.238;2023-07-29T03:04:47;6.80;;;4.22;;
38783;SDS011;24531;45.502;12.238;2023-07-29T03:07:13;7.90;;;4.18;;
38783;SDS011;24531;45.502;12.238;2023-07-29T03:09:39;11.50;;;4.32;;
38783;SDS011;24531;45.502;12.238;2023-07-29T03:12:06;8.07;;;5.18;;
38783;SDS011;24531;45.502;12.238;2023-07-29T03:14:32;7.38;;;4.43;;
38783;SDS011;24531;45.502;12.238;2023-07-29T03:17:01;6.45;;;4.63;;
38783;SDS011;24531;45.502;12.238;2023-07-29T03:19:27;7.47;;;4.22;;
38783;SDS011;24531;45.502;12.238;2023-07-29T03:21:53;8.85;;;4.30;;
38783;SDS011;24531;45.502;12.238;2023-07-29T03:24:19;9.30;;;4.60;;
38783;SDS011;24531;45.502;12.238;2023-07-29T03:26:44;4.68;;;4.13;;
38783;SDS011;24531;45.502;12.238;2023-07-29T03:29:10;9.52;;;4.70;;
38783;SDS011;24531;45.502;12.238;2023-07-29T03:31:35;9.45;;;4.78;;
38783;SDS011;24531;45.502;12.238;2023-07-29T03:34:01;7.93;;;5.07;;
38783;SDS011;24531;45.502;12.238;2023-07-29T03:36:26;9.07;;;4.97;;
38783;SDS011;24531;45.502;12.238;2023-07-29T03:38:52;6.88;;;5.05;;
38783;SDS011;24531;45.502;12.238;2023-07-29T03:41:18;5.43;;;4.18;;
38783;SDS011;24531;45.502;12.238;2023-07-29T03:43:43;8.65;;;5.15;;
38783;SDS011;24531;45.502;12.238;2023-07-29T03:46:09;5.70;;;4.32;;
38783;SDS011;24531;45.502;12.238;2023-07-29T03:48:35;8.25;;;5.07;;
38783;SDS011;24531;45.502;12.238;2023-07-29T03:51:00;10.57;;;5.28;;
38783;SDS011;24531;45.502;12.238;2023-07-29T03:53:26;8.25;;;5.32;;
38783;SDS011;24531;45.502;12.238;2023-07-29T03:55:52;9.00;;;5.28;;
38783;SDS011;24531;45.502;12.238;2023-07-29T03:58:17;10.05;;;5.10;;
38783;SDS011;24531;45.502;12.238;2023-07-29T04:00:43;7.70;;;5.07;;
38783;SDS011;24531;45.502;12.238;2023-07-29T04:03:08;6.22;;;4.93;;
38783;SDS011;24531;45.502;12.238;2023-07-29T04:05:34;5.80;;;4.45;;
38783;SDS011;24531;45.502;12.238;2023-07-29T04:07:59;10.88;;;4.88;;
38783;SDS011;24531;45.502;12.238;2023-07-29T04:10:25;6.70;;;4.80;;
38783;SDS011;24531;45.502;12.238;2023-07-29T04:12:51;9.10;;;4.88;;
38783;SDS011;24531;45.502;12.238;2023-07-29T04:15:16;9.77;;;5.43;;
38783;SDS011;24531;45.502;12.238;2023-07-29T04:17:42;9.45;;;5.00;;
38783;SDS011;24531;45.502;12.238;2023-07-29T04:20:08;7.60;;;5.40;;
38783;SDS011;24531;45.502;12.238;2023-07-29T04:22:34;6.82;;;5.15;;
38783;SDS011;24531;45.502;12.238;2023-07-29T04:24:59;6.90;;;5.07;;
38783;SDS011;24531;45.502;12.238;2023-07-29T04:27:25;8.55;;;5.30;;
38783;SDS011;24531;45.502;12.238;2023-07-29T04:29:51;7.53;;;5.25;;
38783;SDS011;24531;45.502;12.238;2023-07-29T04:32:16;7.07;;;5.28;;
38783;SDS011;24531;45.502;12.238;2023-07-29T04:34:42;7.30;;;4.80;;
38783;SDS011;24531;45.502;12.238;2023-07-29T04:37:07;9.90;;;5.63;;
38783;SDS011;24531;45.502;12.238;2023-07-29T04:39:33;8.15;;;5.03;;
38783;SDS011;24531;45.502;12.238;2023-07-29T04:41:58;7.82;;;4.85;;
38783;SDS011;24531;45.502;12.238;2023-07-29T04:44:25;9.50;;;5.20;;
38783;SDS011;24531;45.502;12.238;2023-07-29T04:46:51;8.68;;;5.43;;
38783;SDS011;24531;45.502;12.238;2023-07-29T04:49:16;9.20;;;4.72;;
38783;SDS011;24531;45.502;12.238;2023-07-29T04:51:42;6.32;;;4.22;;
38783;SDS011;24531;45.502;12.238;2023-07-29T04:54:08;7.70;;;5.13;;
38783;SDS011;24531;45.502;12.238;2023-07-29T04:56:33;6.60;;;4.65;;
38783;SDS011;24531;45.502;12.238;2023-07-29T04:58:59;8.10;;;5.25;;
38783;SDS011;24531;45.502;12.238;2023-07-29T05:01:24;10.38;;;5.05;;
38783;SDS011;24531;45.502;12.238;2023-07-29T05:03:50;6.43;;;5.35;;
38783;SDS011;24531;45.502;12.238;2023-07-29T05:06:15;8.90;;;5.78;;
38783;SDS011;24531;45.502;12.238;2023-07-29T05:08:41;9.43;;;5.82;;
38783;SDS011;24531;45.502;12.238;2023-07-29T05:11:07;11.43;;;5.70;;
38783;SDS011;24531;45.502;12.238;2023-07-29T05:13:32;8.63;;;5.78;;
38783;SDS011;24531;45.502;12.238;2023-07-29T05:15:58;8.80;;;6.00;;
38783;SDS011;24531;45.502;12.238;2023-07-29T05:18:23;10.90;;;6.82;;
38783;SDS011;24531;45.502;12.238;2023-07-29T05:20:49;8.27;;;5.75;;
38783;SDS011;24531;45.502;12.238;2023-07-29T05:23:15;12.05;;;6.55;;
38783;SDS011;24531;45.502;12.238;2023-07-29T05:25:40;11.10;;;6.57;;
38783;SDS011;24531;45.502;12.238;2023-07-29T05:28:06;13.30;;;6.55;;
38783;SDS011;24531;45.502;12.238;2023-07-29T05:30:32;9.88;;;6.63;;
38783;SDS011;24531;45.502;12.238;2023-07-29T05:33:02;6.88;;;5.10;;
38783;SDS011;24531;45.502;12.238;2023-07-29T05:35:32;11.50;;;5.70;;
38783;SDS011;24531;45.502;12.238;2023-07-29T05:37:58;12.90;;;5.65;;
38783;SDS011;24531;45.502;12.238;2023-07-29T05:40:23;8.35;;;5.07;;
38783;SDS011;24531;45.502;12.238;2023-07-29T05:42:49;7.50;;;5.28;;
38783;SDS011;24531;45.502;12.238;2023-07-29T05:45:14;11.15;;;5.10;;
38783;SDS011;24531;45.502;12.238;2023-07-29T05:47:40;7.68;;;5.03;;
38783;SDS011;24531;45.502;12.238;2023-07-29T05:50:06;8.05;;;4.85;;
38783;SDS011;24531;45.502;12.238;2023-07-29T05:52:33;9.10;;;4.55;;
38783;SDS011;24531;45.502;12.238;2023-07-29T05:54:59;7.85;;;4.70;;
38783;SDS011;24531;45.502;12.238;2023-07-29T05:57:25;10.00;;;4.00;;
38783;SDS011;24531;45.502;12.238;2023-07-29T05:59:50;6.72;;;3.95;;
38783;SDS011;24531;45.502;12.238;2023-07-29T06:02:16;6.75;;;4.45;;
38783;SDS011;24531;45.502;12.238;2023-07-29T06:04:42;9.05;;;3.95;;
38783;SDS011;24531;45.502;12.238;2023-07-29T06:07:07;8.00;;;4.20;;
38783;SDS011;24531;45.502;12.238;2023-07-29T06:09:33;5.32;;;3.75;;
38783;SDS011;24531;45.502;12.238;2023-07-29T06:11:59;13.63;;;4.05;;
38783;SDS011;24531;45.502;12.238;2023-07-29T06:14:24;7.35;;;4.38;;
38783;SDS011;24531;45.502;12.238;2023-07-29T06:16:50;9.57;;;3.65;;
38783;SDS011;24531;45.502;12.238;2023-07-29T06:19:17;6.88;;;3.63;;
38783;SDS011;24531;45.502;12.238;2023-07-29T06:21:43;7.60;;;4.03;;
38783;SDS011;24531;45.502;12.238;2023-07-29T06:24:09;6.10;;;3.70;;
38783;SDS011;24531;45.502;12.238;2023-07-29T06:26:34;9.35;;;4.20;;
38783;SDS011;24531;45.502;12.238;2023-07-29T06:29:00;6.55;;;3.80;;
38783;SDS011;24531;45.502;12.238;2023-07-29T06:31:25;6.63;;;3.22;;
38783;SDS011;24531;45.502;12.238;2023-07-29T06:33:51;6.30;;;3.60;;
38783;SDS011;24531;45.502;12.238;2023-07-29T06:36:17;7.50;;;3.65;;
38783;SDS011;24531;45.502;12.238;2023-07-29T06:38:42;6.03;;;3.17;;
38783;SDS011;24531;45.502;12.238;2023-07-29T06:41:08;7.78;;;3.17;;
38783;SDS011;24531;45.502;12.238;2023-07-29T06:43:34;9.07;;;3.20;;
38783;SDS011;24531;45.502;12.238;2023-07-29T06:45:59;4.97;;;2.95;;
38783;SDS011;24531;45.502;12.238;2023-07-29T06:48:25;4.90;;;2.75;;
38783;SDS011;24531;45.502;12.238;2023-07-29T06:50:50;6.32;;;2.40;;
38783;SDS011;24531;45.502;12.238;2023-07-29T06:53:17;3.00;;;2.42;;
38783;SDS011;24531;45.502;12.238;2023-07-29T06:55:43;3.90;;;2.33;;
38783;SDS011;24531;45.502;12.238;2023-07-29T06:58:09;4.95;;;2.45;;
38783;SDS011;24531;45.502;12.238;2023-07-29T07:00:35;3.25;;;2.00;;
38783;SDS011;24531;45.502;12.238;2023-07-29T07:03:01;4.45;;;2.17;;
38783;SDS011;24531;45.502;12.238;2023-07-29T07:05:26;5.05;;;2.63;;
38783;SDS011;24531;45.502;12.238;2023-07-29T07:07:52;5.40;;;2.20;;
38783;SDS011;24531;45.502;12.238;2023-07-29T07:10:17;5.13;;;2.70;;
38783;SDS011;24531;45.502;12.238;2023-07-29T07:12:43;4.32;;;2.15;;
38783;SDS011;24531;45.502;12.238;2023-07-29T07:15:09;4.90;;;2.38;;
38783;SDS011;24531;45.502;12.238;2023-07-29T07:17:34;2.90;;;1.75;;
38783;SDS011;24531;45.502;12.238;2023-07-29T07:20:00;3.95;;;2.13;;
38783;SDS011;24531;45.502;12.238;2023-07-29T07:22:25;2.15;;;1.42;;
38783;SDS011;24531;45.502;12.238;2023-07-29T07:24:51;4.13;;;1.80;;
38783;SDS011;24531;45.502;12.238;2023-07-29T07:27:17;4.57;;;1.90;;
38783;SDS011;24531;45.502;12.238;2023-07-29T07:29:42;6.00;;;2.25;;
38783;SDS011;24531;45.502;12.238;2023-07-29T07:32:08;5.75;;;2.22;;
38783;SDS011;24531;45.502;12.238;2023-07-29T07:34:33;6.47;;;2.20;;
38783;SDS011;24531;45.502;12.238;2023-07-29T07:36:59;8.93;;;2.45;;
38783;SDS011;24531;45.502;12.238;2023-07-29T07:39:25;3.63;;;2.05;;
38783;SDS011;24531;45.502;12.238;2023-07-29T07:41:51;5.90;;;2.10;;
38783;SDS011;24531;45.502;12.238;2023-07-29T07:44:17;8.75;;;1.95;;
38783;SDS011;24531;45.502;12.238;2023-07-29T07:46:44;6.95;;;1.75;;
38783;SDS011;24531;45.502;12.238;2023-07-29T07:49:10;3.47;;;1.73;;
38783;SDS011;24531;45.502;12.238;2023-07-29T07:51:35;4.90;;;2.10;;
38783;SDS011;24531;45.502;12.238;2023-07-29T07:54:01;4.43;;;1.98;;
38783;SDS011;24531;45.502;12.238;2023-07-29T07:56:27;8.05;;;2.10;;
38783;SDS011;24531;45.502;12.238;2023-07-29T07:58:52;5.40;;;2.17;;
38783;SDS011;24531;45.502;12.238;2023-07-29T08:01:18;6.03;;;1.85;;
38783;SDS011;24531;45.502;12.238;2023-07-29T08:03:43;2.80;;;1.77;;
38783;SDS011;24531;45.502;12.238;2023-07-29T08:06:09;3.63;;;1.88;;
38783;SDS011;24531;45.502;12.238;2023-07-29T08:08:35;4.63;;;1.55;;
38783;SDS011;24531;45.502;12.238;2023-07-29T08:11:00;8.20;;;2.22;;
38783;SDS011;24531;45.502;12.238;2023-07-29T08:13:26;3.63;;;1.63;;
38783;SDS011;24531;45.502;12.238;2023-07-29T08:15:52;3.15;;;1.60;;
38783;SDS011;24531;45.502;12.238;2023-07-29T08:18:18;2.45;;;1.55;;
38783;SDS011;24531;45.502;12.238;2023-07-29T08:20:57;4.55;;;2.10;;
38783;SDS011;24531;45.502;12.238;2023-07-29T08:23:27;2.95;;;1.52;;
38783;SDS011;24531;45.502;12.238;2023-07-29T08:25:56;7.40;;;1.80;;
38783;SDS011;24531;45.502;12.238;2023-07-29T08:28:27;3.40;;;1.80;;
38783;SDS011;24531;45.502;12.238;2023-07-29T08:30:56;5.13;;;1.77;;
38783;SDS011;24531;45.502;12.238;2023-07-29T08:33:23;2.50;;;1.73;;
38783;SDS011;24531;45.502;12.238;2023-07-29T08:35:49;4.45;;;1.98;;
38783;SDS011;24531;45.502;12.238;2023-07-29T08:38:14;5.35;;;2.63;;
38783;SDS011;24531;45.502;12.238;2023-07-29T08:40:50;3.45;;;1.65;;
38783;SDS011;24531;45.502;12.238;2023-07-29T08:43:22;8.82;;;1.80;;
38783;SDS011;24531;45.502;12.238;2023-07-29T08:45:56;5.55;;;2.45;;
38783;SDS011;24531;45.502;12.238;2023-07-29T08:48:29;4.22;;;2.30;;
38783;SDS011;24531;45.502;12.238;2023-07-29T08:51:03;5.43;;;2.13;;
38783;SDS011;24531;45.502;12.238;2023-07-29T08:53:30;9.60;;;2.15;;
38783;SDS011;24531;45.502;12.238;2023-07-29T08:55:56;4.50;;;2.08;;
38783;SDS011;24531;45.502;12.238;2023-07-29T08:58:23;3.05;;;1.85;;
38783;SDS011;24531;45.502;12.238;2023-07-29T09:00:49;5.03;;;1.70;;
38783;SDS011;24531;45.502;12.238;2023-07-29T09:03:15;5.03;;;2.53;;
38783;SDS011;24531;45.502;12.238;2023-07-29T09:05:41;4.68;;;1.90;;
38783;SDS011;24531;45.502;12.238;2023-07-29T09:08:07;4.57;;;1.58;;
38783;SDS011;24531;45.502;12.238;2023-07-29T09:10:36;8.10;;;2.10;;
38783;SDS011;24531;45.502;12.238;2023-07-29T09:13:02;5.50;;;1.60;;
38783;SDS011;24531;45.502;12.238;2023-07-29T09:15:29;5.32;;;2.05;;
38783;SDS011;24531;45.502;12.238;2023-07-29T09:17:56;5.97;;;1.73;;
38783;SDS011;24531;45.502;12.238;2023-07-29T09:20:26;3.05;;;1.75;;
38783;SDS011;24531;45.502;12.238;2023-07-29T09:22:58;2.63;;;1.48;;
38783;SDS011;24531;45.502;12.238;2023-07-29T09:25:28;8.30;;;2.13;;
38783;SDS011;24531;45.502;12.238;2023-07-29T09:28:01;5.57;;;1.70;;
38783;SDS011;24531;45.502;12.238;2023-07-29T09:30:32;4.35;;;1.83;;
38783;SDS011;24531;45.502;12.238;2023-07-29T09:32:57;2.05;;;1.52;;
38783;SDS011;24531;45.502;12.238;2023-07-29T09:35:24;4.68;;;2.13;;
38783;SDS011;24531;45.502;12.238;2023-07-29T09:37:52;5.88;;;1.90;;
38783;SDS011;24531;45.502;12.238;2023-07-29T09:40:18;3.45;;;1.88;;
38783;SDS011;24531;45.502;12.238;2023-07-29T09:42:48;5.10;;;2.00;;
38783;SDS011;24531;45.502;12.238;2023-07-29T09:47:49;5.72;;;1.92;;
38783;SDS011;24531;45.502;12.238;2023-07-29T09:50:15;4.25;;;1.92;;
38783;SDS011;24531;45.502;12.238;2023-07-29T09:52:41;6.38;;;2.00;;
38783;SDS011;24531;45.502;12.238;2023-07-29T09:55:09;5.40;;;1.73;;
38783;SDS011;24531;45.502;12.238;2023-07-29T09:57:39;7.20;;;2.15;;
38783;SDS011;24531;45.502;12.238;2023-07-29T10:00:05;2.90;;;1.77;;
38783;SDS011;24531;45.502;12.238;2023-07-29T10:02:36;6.63;;;1.95;;
38783;SDS011;24531;45.502;12.238;2023-07-29T10:05:08;3.00;;;1.77;;
38783;SDS011;24531;45.502;12.238;2023-07-29T10:07:38;6.00;;;1.58;;
38783;SDS011;24531;45.502;12.238;2023-07-29T10:10:04;5.60;;;1.70;;
38783;SDS011;24531;45.502;12.238;2023-07-29T10:12:32;3.30;;;1.85;;
38783;SDS011;24531;45.502;12.238;2023-07-29T10:15:03;4.43;;;1.65;;
38783;SDS011;24531;45.502;12.238;2023-07-29T10:17:30;4.28;;;2.20;;
38783;SDS011;24531;45.502;12.238;2023-07-29T10:19:58;10.77;;;2.25;;
38783;SDS011;24531;45.502;12.238;2023-07-29T10:22:25;6.00;;;2.03;;
38783;SDS011;24531;45.502;12.238;2023-07-29T10:24:54;4.05;;;2.13;;
38783;SDS011;24531;45.502;12.238;2023-07-29T10:27:24;5.80;;;1.80;;
38783;SDS011;24531;45.502;12.238;2023-07-29T10:29:52;4.50;;;1.77;;
38783;SDS011;24531;45.502;12.238;2023-07-29T10:32:22;5.10;;;2.10;;
38783;SDS011;24531;45.502;12.238;2023-07-29T10:34:51;4.45;;;1.95;;
38783;SDS011;24531;45.502;12.238;2023-07-29T10:37:20;5.13;;;2.05;;
38783;SDS011;24531;45.502;12.238;2023-07-29T10:39:54;5.60;;;2.30;;
38783;SDS011;24531;45.502;12.238;2023-07-29T10:42:20;5.07;;;1.77;;
38783;SDS011;24531;45.502;12.238;2023-07-29T10:44:46;6.68;;;1.83;;
38783;SDS011;24531;45.502;12.238;2023-07-29T10:47:17;6.35;;;1.52;;
38783;SDS011;24531;45.502;12.238;2023-07-29T10:49:44;4.60;;;1.70;;
38783;SDS011;24531;45.502;12.238;2023-07-29T10:52:14;3.95;;;2.13;;
38783;SDS011;24531;45.502;12.238;2023-07-29T10:54:46;5.40;;;2.35;;
38783;SDS011;24531;45.502;12.238;2023-07-29T10:57:13;4.68;;;2.30;;
38783;SDS011;24531;45.502;12.238;2023-07-29T10:59:40;3.25;;;1.80;;
38783;SDS011;24531;45.502;12.238;2023-07-29T11:02:17;8.80;;;1.92;;
38783;SDS011;24531;45.502;12.238;2023-07-29T11:04:49;5.40;;;2.15;;
38783;SDS011;24531;45.502;12.238;2023-07-29T11:09:41;3.90;;;2.10;;
38783;SDS011;24531;45.502;12.238;2023-07-29T11:17:56;3.70;;;2.22;;
38783;SDS011;24531;45.502;12.238;2023-07-29T11:20:26;3.88;;;1.88;;
38783;SDS011;24531;45.502;12.238;2023-07-29T11:22:57;4.82;;;2.00;;
38783;SDS011;24531;45.502;12.238;2023-07-29T11:25:27;3.42;;;2.08;;
38783;SDS011;24531;45.502;12.238;2023-07-29T11:27:55;6.00;;;2.00;;
38783;SDS011;24531;45.502;12.238;2023-07-29T11:30:23;4.85;;;2.15;;
38783;SDS011;24531;45.502;12.238;2023-07-29T11:32:51;4.30;;;1.67;;
38783;SDS011;24531;45.502;12.238;2023-07-29T11:35:18;5.97;;;1.90;;
38783;SDS011;24531;45.502;12.238;2023-07-29T11:37:46;3.45;;;2.13;;
38783;SDS011;24531;45.502;12.238;2023-07-29T11:40:14;2.80;;;2.00;;
38783;SDS011;24531;45.502;12.238;2023-07-29T11:42:40;4.45;;;2.00;;
38783;SDS011;24531;45.502;12.238;2023-07-29T11:45:06;3.53;;;1.63;;
38783;SDS011;24531;45.502;12.238;2023-07-29T11:47:33;4.90;;;2.38;;
38783;SDS011;24531;45.502;12.238;2023-07-29T11:50:02;3.50;;;1.92;;
38783;SDS011;24531;45.502;12.238;2023-07-29T11:52:31;4.53;;;2.38;;
38783;SDS011;24531;45.502;12.238;2023-07-29T11:55:00;6.35;;;2.47;;
38783;SDS011;24531;45.502;12.238;2023-07-29T11:57:28;3.72;;;1.83;;
38783;SDS011;24531;45.502;12.238;2023-07-29T11:59:54;5.43;;;2.03;;
38783;SDS011;24531;45.502;12.238;2023-07-29T12:02:20;4.70;;;1.83;;
38783;SDS011;24531;45.502;12.238;2023-07-29T12:04:48;3.70;;;1.85;;
38783;SDS011;24531;45.502;12.238;2023-07-29T12:07:16;5.25;;;2.05;;
38783;SDS011;24531;45.502;12.238;2023-07-29T12:09:42;6.00;;;1.95;;
38783;SDS011;24531;45.502;12.238;2023-07-29T12:12:08;4.07;;;2.08;;
38783;SDS011;24531;45.502;12.238;2023-07-29T12:14:34;2.97;;;1.98;;
38783;SDS011;24531;45.502;12.238;2023-07-29T12:17:04;4.70;;;2.22;;
38783;SDS011;24531;45.502;12.238;2023-07-29T12:19:34;8.18;;;1.70;;
38783;SDS011;24531;45.502;12.238;2023-07-29T12:22:02;6.13;;;2.22;;
38783;SDS011;24531;45.502;12.238;2023-07-29T12:24:29;10.48;;;2.35;;
38783;SDS011;24531;45.502;12.238;2023-07-29T12:26:56;5.13;;;2.20;;
38783;SDS011;24531;45.502;12.238;2023-07-29T12:29:22;7.07;;;2.40;;
38783;SDS011;24531;45.502;12.238;2023-07-29T12:31:48;7.25;;;2.42;;
38783;SDS011;24531;45.502;12.238;2023-07-29T12:34:20;5.30;;;2.20;;
38783;SDS011;24531;45.502;12.238;2023-07-29T12:36:50;4.72;;;2.05;;
38783;SDS011;24531;45.502;12.238;2023-07-29T12:39:20;6.93;;;2.25;;
38783;SDS011;24531;45.502;12.238;2023-07-29T12:41:47;5.30;;;2.10;;
38783;SDS011;24531;45.502;12.238;2023-07-29T12:44:14;8.15;;;2.85;;
38783;SDS011;24531;45.502;12.238;2023-07-29T12:46:39;5.90;;;1.92;;
38783;SDS011;24531;45.502;12.238;2023-07-29T12:49:05;4.70;;;2.08;;
38783;SDS011;24531;45.502;12.238;2023-07-29T12:51:31;6.57;;;2.22;;
38783;SDS011;24531;45.502;12.238;2023-07-29T12:53:57;2.88;;;2.00;;
38783;SDS011;24531;45.502;12.238;2023-07-29T12:56:22;3.00;;;2.05;;
38783;SDS011;24531;45.502;12.238;2023-07-29T12:58:48;4.03;;;2.13;;
38783;SDS011;24531;45.502;12.238;2023-07-29T13:01:14;6.07;;;2.25;;
38783;SDS011;24531;45.502;12.238;2023-07-29T13:03:43;4.40;;;2.20;;
38783;SDS011;24531;45.502;12.238;2023-07-29T13:06:09;6.80;;;2.38;;
38783;SDS011;24531;45.502;12.238;2023-07-29T13:08:34;4.80;;;2.83;;
38783;SDS011;24531;45.502;12.238;2023-07-29T13:11:00;8.13;;;2.00;;
38783;SDS011;24531;45.502;12.238;2023-07-29T13:13:25;4.75;;;2.15;;
38783;SDS011;24531;45.502;12.238;2023-07-29T13:15:51;2.67;;;2.42;;
38783;SDS011;24531;45.502;12.238;2023-07-29T13:18:17;4.72;;;2.22;;
38783;SDS011;24531;45.502;12.238;2023-07-29T13:20:43;6.22;;;2.28;;
38783;SDS011;24531;45.502;12.238;2023-07-29T13:23:09;9.98;;;2.55;;
38783;SDS011;24531;45.502;12.238;2023-07-29T13:25:34;6.30;;;2.65;;
38783;SDS011;24531;45.502;12.238;2023-07-29T13:28:00;4.35;;;3.00;;
38783;SDS011;24531;45.502;12.238;2023-07-29T13:30:25;5.47;;;3.03;;
38783;SDS011;24531;45.502;12.238;2023-07-29T13:32:51;4.70;;;2.33;;
38783;SDS011;24531;45.502;12.238;2023-07-29T13:35:17;6.22;;;2.30;;
38783;SDS011;24531;45.502;12.238;2023-07-29T13:37:42;4.35;;;2.38;;
38783;SDS011;24531;45.502;12.238;2023-07-29T13:40:08;4.25;;;2.30;;
38783;SDS011;24531;45.502;12.238;2023-07-29T13:42:34;4.95;;;2.15;;
38783;SDS011;24531;45.502;12.238;2023-07-29T13:45:00;4.40;;;2.28;;
38783;SDS011;24531;45.502;12.238;2023-07-29T13:47:25;4.93;;;2.50;;
38783;SDS011;24531;45.502;12.238;2023-07-29T13:49:51;3.17;;;1.60;;
38783;SDS011;24531;45.502;12.238;2023-07-29T13:52:17;3.40;;;2.33;;
38783;SDS011;24531;45.502;12.238;2023-07-29T13:54:42;5.25;;;2.40;;
38783;SDS011;24531;45.502;12.238;2023-07-29T13:57:08;3.13;;;2.00;;
38783;SDS011;24531;45.502;12.238;2023-07-29T13:59:35;5.28;;;2.33;;
38783;SDS011;24531;45.502;12.238;2023-07-29T14:02:03;7.82;;;2.53;;
38783;SDS011;24531;45.502;12.238;2023-07-29T14:04:32;5.57;;;2.15;;
38783;SDS011;24531;45.502;12.238;2023-07-29T14:06:58;7.05;;;2.75;;
38783;SDS011;24531;45.502;12.238;2023-07-29T14:09:24;7.93;;;2.67;;
38783;SDS011;24531;45.502;12.238;2023-07-29T14:11:51;3.53;;;2.45;;
38783;SDS011;24531;45.502;12.238;2023-07-29T14:14:17;3.97;;;2.30;;
38783;SDS011;24531;45.502;12.238;2023-07-29T14:16:42;4.63;;;2.00;;
38783;SDS011;24531;45.502;12.238;2023-07-29T14:19:08;6.25;;;2.38;;
38783;SDS011;24531;45.502;12.238;2023-07-29T14:21:34;7.70;;;2.42;;
38783;SDS011;24531;45.502;12.238;2023-07-29T14:23:59;6.30;;;2.65;;
38783;SDS011;24531;45.502;12.238;2023-07-29T14:26:25;3.97;;;2.03;;
38783;SDS011;24531;45.502;12.238;2023-07-29T14:28:51;5.50;;;2.38;;
38783;SDS011;24531;45.502;12.238;2023-07-29T14:31:17;6.35;;;2.72;;
38783;SDS011;24531;45.502;12.238;2023-07-29T14:33:43;5.35;;;2.30;;
38783;SDS011;24531;45.502;12.238;2023-07-29T14:36:09;6.20;;;2.60;;
38783;SDS011;24531;45.502;12.238;2023-07-29T14:38:35;6.57;;;2.90;;
38783;SDS011;24531;45.502;12.238;2023-07-29T14:41:02;8.48;;;2.60;;
38783;SDS011;24531;45.502;12.238;2023-07-29T14:43:28;5.32;;;2.40;;
38783;SDS011;24531;45.502;12.238;2023-07-29T14:45:55;6.38;;;2.95;;
38783;SDS011;24531;45.502;12.238;2023-07-29T14:48:20;2.92;;;2.22;;
38783;SDS011;24531;45.502;12.238;2023-07-29T14:50:49;9.07;;;2.70;;
38783;SDS011;24531;45.502;12.238;2023-07-29T14:53:14;3.08;;;2.53;;
38783;SDS011;24531;45.502;12.238;2023-07-29T14:55:40;6.10;;;3.17;;